createdAt,value
2022-11-18T00:02:54.579Z,96056.69
2022-11-18T00:07:56.340Z,96060.31
2022-11-18T00:13:16.631Z,96063.50
2022-11-18T00:18:18.429Z,96069.25
2022-11-18T00:23:20.188Z,96074.25
2022-11-18T00:28:22.023Z,96067.34
2022-11-18T00:33:24.570Z,96067.16
2022-11-18T00:38:26.940Z,96063.75
2022-11-18T00:43:29.282Z,96067.72
2022-11-18T00:48:31.216Z,96068.63
2022-11-18T00:53:33.009Z,96067.19
2022-11-18T00:58:35.242Z,96056.69
2022-11-18T01:03:37.034Z,96054.31
2022-11-18T01:08:38.899Z,96058.53
2022-11-18T01:13:40.673Z,96067.31
2022-11-18T01:18:42.436Z,96062.91
2022-11-18T01:23:45.354Z,96061.63
2022-11-18T01:28:47.174Z,96058.03
2022-11-18T01:33:48.939Z,96046.66
2022-11-18T01:38:52.045Z,96053.31
2022-11-18T01:44:25.910Z,96042.66
2022-11-18T01:49:28.051Z,96050.47
2022-11-18T01:54:39.818Z,96044.88
2022-11-18T01:59:44.352Z,96045.91
2022-11-18T02:04:49.998Z,96047.38
2022-11-18T02:09:53.735Z,96053.31
2022-11-18T02:14:55.677Z,96038.84
2022-11-18T02:20:09.768Z,96050.16
2022-11-18T02:25:39.339Z,96046.00
2022-11-18T02:30:59.306Z,96044.78
2022-11-18T02:36:13.272Z,96047.38
2022-11-18T02:41:25.250Z,96050.81
2022-11-18T02:46:34.430Z,96054.78
2022-11-18T02:51:37.094Z,96058.38
2022-11-18T02:56:39.200Z,96052.47
2022-11-18T03:01:41.017Z,96059.56
2022-11-18T03:06:52.109Z,96075.06
2022-11-18T03:12:44.687Z,96066.31
2022-11-18T03:18:11.011Z,96072.09
2022-11-18T03:23:28.280Z,96066.94
2022-11-18T03:28:47.294Z,96067.31
2022-11-18T03:34:03.463Z,96071.72
2022-11-18T03:39:10.074Z,96073.59
2022-11-18T03:44:17.091Z,96071.63
2022-11-18T03:49:30.299Z,96078.75
2022-11-18T03:54:36.113Z,96081.31
2022-11-18T04:00:06.504Z,96087.25
2022-11-18T04:05:11.879Z,96089.41
2022-11-18T04:10:17.002Z,96097.75
2022-11-18T04:15:19.258Z,96093.78
2022-11-18T04:20:22.545Z,96095.25
2022-11-18T04:25:27.089Z,96100.97
2022-11-18T04:30:29.078Z,96097.66
2022-11-18T04:35:30.903Z,96094.53
2022-11-18T04:40:32.696Z,96097.91
2022-11-18T04:45:34.508Z,96099.50
2022-11-18T04:50:36.292Z,96099.50
2022-11-18T04:55:38.142Z,96107.34
2022-11-18T05:00:40.157Z,96092.19
2022-11-18T05:05:41.927Z,96092.00
2022-11-18T05:10:43.686Z,96101.19
2022-11-18T05:15:45.459Z,96094.44
2022-11-18T05:20:47.216Z,96094.44
2022-11-18T05:25:48.954Z,96101.22
2022-11-18T05:30:50.736Z,96106.38
2022-11-18T05:35:55.067Z,96107.78
2022-11-18T05:40:57.557Z,96115.81
2022-11-18T05:45:59.850Z,96120.59
2022-11-18T05:51:01.604Z,96125.22
2022-11-18T05:56:15.345Z,96134.97
2022-11-18T06:01:22.796Z,96141.91
2022-11-18T06:06:25.297Z,96148.06
2022-11-18T06:11:29.117Z,96154.81
2022-11-18T06:16:39.458Z,96163.06
2022-11-18T06:21:43.845Z,96162.56
2022-11-18T06:26:46.745Z,96171.25
2022-11-18T06:31:48.554Z,96175.53
2022-11-18T06:36:50.318Z,96177.00
2022-11-18T06:41:55.202Z,96182.97
2022-11-18T06:46:57.315Z,96188.41
2022-11-18T06:51:59.124Z,96194.03
2022-11-18T06:57:00.949Z,96201.13
2022-11-18T07:02:02.798Z,96194.22
2022-11-18T07:07:04.659Z,96211.31
2022-11-18T07:12:06.553Z,96215.41
2022-11-18T07:17:08.451Z,96212.78
2022-11-18T07:22:10.239Z,96217.03
2022-11-18T07:27:12.020Z,96220.03
2022-11-18T07:32:13.818Z,96220.56
2022-11-18T07:37:15.624Z,96225.44
2022-11-18T07:42:17.419Z,96229.53
2022-11-18T07:47:19.201Z,96227.09
2022-11-18T07:52:20.988Z,96232.63
2022-11-18T07:57:22.782Z,96236.84
2022-11-18T08:02:24.566Z,96247.31
2022-11-18T08:07:26.467Z,96247.56
2022-11-18T08:12:30.793Z,96250.69
2022-11-18T08:17:32.911Z,96263.88
2022-11-18T08:22:34.753Z,96263.97
2022-11-18T08:27:36.585Z,96262.31
2022-11-18T08:32:38.437Z,96257.72
2022-11-18T08:37:40.248Z,96263.34
2022-11-18T08:42:42.010Z,96266.41
2022-11-18T08:47:43.859Z,96270.97
2022-11-18T08:52:45.670Z,96265.84
2022-11-18T08:57:48.063Z,96276.72
2022-11-18T09:02:50.275Z,96281.44
2022-11-18T09:07:52.058Z,96294.03
2022-11-18T09:12:54.812Z,96298.25
2022-11-18T09:17:57.948Z,96305.16
2022-11-18T09:22:59.730Z,96303.09
2022-11-18T09:28:01.522Z,96320.78
2022-11-18T09:33:03.547Z,96327.69
2022-11-18T09:38:05.361Z,96325.16
2022-11-18T09:43:20.872Z,96332.69
2022-11-18T09:48:45.897Z,96336.69
2022-11-18T09:53:47.915Z,96328.13
2022-11-18T09:58:50.450Z,96342.94
2022-11-18T10:03:52.308Z,96347.69
2022-11-18T10:09:13.780Z,96347.88
2022-11-18T10:14:49.717Z,96353.25
2022-11-18T10:19:51.480Z,96358.53
2022-11-18T10:24:55.375Z,96361.09
2022-11-18T10:29:58.405Z,96373.94
2022-11-18T10:35:00.176Z,96379.56
2022-11-18T10:40:05.297Z,96382.78
2022-11-18T10:45:27.435Z,96386.28
2022-11-18T10:50:39.828Z,96392.69
2022-11-18T10:55:41.584Z,96393.19
2022-11-18T11:00:49.344Z,96410.19
2022-11-18T11:06:33.212Z,96408.09
2022-11-18T11:11:40.055Z,96418.00
2022-11-18T11:16:52.106Z,96419.44
2022-11-18T11:21:53.977Z,96425.34
2022-11-18T11:32:55.094Z,96434.41
2022-11-18T11:38:04.349Z,96442.94
2022-11-18T11:43:24.764Z,96449.09
2022-11-18T11:48:41.710Z,96460.00
2022-11-18T11:53:46.607Z,96463.94
2022-11-18T11:59:08.825Z,96466.66
2022-11-18T12:04:22.735Z,96471.03
2022-11-18T12:09:33.730Z,96481.56
2022-11-18T12:14:46.853Z,96480.38
2022-11-18T12:19:49.027Z,96487.44
2022-11-18T12:24:50.957Z,96490.53
2022-11-18T12:30:03.998Z,96489.72
2022-11-18T12:35:25.505Z,96503.41
2022-11-18T12:40:52.206Z,96499.75
2022-11-18T12:45:57.137Z,96503.53
2022-11-18T12:51:26.386Z,96506.19
2022-11-18T12:56:33.504Z,96506.22
2022-11-18T13:01:35.572Z,96513.50
2022-11-18T13:06:39.207Z,96519.94
2022-11-18T13:11:50.962Z,96523.63
2022-11-18T13:17:11.372Z,96529.53
2022-11-18T13:22:36.792Z,96542.00
2022-11-18T13:27:58.426Z,96552.81
2022-11-18T13:33:00.639Z,96561.44
2022-11-18T13:38:03.245Z,96557.78
2022-11-18T13:43:05.633Z,96570.47
2022-11-18T13:48:12.666Z,96571.66
2022-11-18T13:53:19.073Z,96576.47
2022-11-18T13:58:55.651Z,96578.06
2022-11-18T14:03:58.782Z,96588.06
2022-11-18T14:09:26.715Z,96593.78
2022-11-18T14:14:34.023Z,96605.00
2022-11-18T14:19:36.811Z,96604.38
2022-11-18T14:24:38.673Z,96603.69
2022-11-18T14:29:49.663Z,96606.25
2022-11-18T14:35:01.235Z,96608.81
2022-11-18T14:40:03.154Z,96608.03
2022-11-18T14:45:05.307Z,96619.28
2022-11-18T14:50:14.959Z,96631.56
2022-11-18T14:55:16.869Z,96632.91
2022-11-18T15:00:19.744Z,96645.69
2022-11-18T15:05:21.647Z,96652.25
2022-11-18T15:10:23.490Z,96671.63
2022-11-18T15:15:25.545Z,96667.03
2022-11-18T15:20:27.497Z,96675.47
2022-11-18T15:25:29.435Z,96674.25
2022-11-18T15:30:31.244Z,96687.81
2022-11-18T15:35:33.088Z,96697.88
2022-11-18T15:40:35.198Z,96708.59
2022-11-18T15:45:37.010Z,96716.09
2022-11-18T15:50:39.637Z,96719.31
2022-11-18T15:55:41.813Z,96722.53
2022-11-18T16:00:45.079Z,96736.19
2022-11-18T16:05:47.260Z,96745.16
2022-11-18T16:11:13.204Z,96744.66
2022-11-18T16:16:23.362Z,96753.19
2022-11-18T16:21:26.667Z,96751.88
2022-11-18T16:26:32.764Z,96754.78
2022-11-18T16:31:40.859Z,96772.19
2022-11-18T16:36:44.913Z,96773.38
2022-11-18T16:41:46.742Z,96781.22
2022-11-18T16:46:51.241Z,96777.22
2022-11-18T16:51:55.191Z,96786.84
2022-11-18T16:56:58.696Z,96806.34
2022-11-18T17:02:01.097Z,96806.78
2022-11-18T17:07:03.419Z,96829.34
2022-11-18T17:12:05.866Z,96838.47
2022-11-18T17:17:07.846Z,96828.06
2022-11-18T17:22:09.665Z,96831.03
2022-11-18T17:27:11.498Z,96839.25
2022-11-18T17:32:13.337Z,96838.81
2022-11-18T17:37:15.097Z,96845.41
2022-11-18T17:42:19.171Z,96864.97
2022-11-18T17:47:21.163Z,96875.88
2022-11-18T17:52:22.960Z,96874.25
2022-11-18T17:57:24.710Z,96873.25
2022-11-18T18:02:26.549Z,96874.41
2022-11-18T18:07:30.299Z,96876.03
2022-11-18T18:12:50.816Z,96881.78
2022-11-18T18:17:52.714Z,96898.09
2022-11-18T18:22:54.591Z,96903.69
2022-11-18T18:27:56.398Z,96902.75
2022-11-18T18:32:58.269Z,96897.56
2022-11-18T18:38:00.313Z,96904.59
2022-11-18T18:43:02.099Z,96906.78
2022-11-18T18:48:04.073Z,96914.34
2022-11-18T18:53:05.874Z,96920.81
2022-11-18T18:58:07.810Z,96925.78
2022-11-18T19:03:09.611Z,96930.19
2022-11-18T19:08:11.404Z,96945.38
2022-11-18T19:13:13.194Z,96946.44
2022-11-18T19:18:15.063Z,96941.91
2022-11-18T19:23:18.147Z,96943.88
2022-11-18T19:28:20.020Z,96958.34
2022-11-18T19:33:21.886Z,96956.75
2022-11-18T19:38:23.727Z,96966.97
2022-11-18T19:43:27.285Z,96972.16
2022-11-18T19:48:29.761Z,96970.75
2022-11-18T19:53:35.163Z,96969.38
2022-11-18T19:58:38.595Z,96970.41
2022-11-18T20:03:44.896Z,96970.06
2022-11-18T20:08:47.778Z,96974.94
2022-11-18T20:13:50.278Z,96987.22
2022-11-18T20:18:57.766Z,96992.63
2022-11-18T20:24:04.586Z,96991.81
2022-11-18T20:29:08.118Z,96979.47
2022-11-18T20:34:14.314Z,96987.31
2022-11-18T20:39:16.736Z,96995.75
2022-11-18T20:44:18.679Z,97006.28
2022-11-18T20:49:20.798Z,97002.59
2022-11-18T20:54:22.718Z,97024.00
2022-11-18T20:59:24.690Z,97026.19
2022-11-18T21:04:26.509Z,97028.63
2022-11-18T21:09:31.775Z,97033.84
2022-11-18T21:14:33.576Z,97041.47
2022-11-18T21:19:35.380Z,97038.78
2022-11-18T21:24:37.909Z,97043.44
2022-11-18T21:29:40.815Z,97051.41
2022-11-18T21:34:42.599Z,97059.94
2022-11-18T21:39:45.916Z,97076.72
2022-11-18T21:44:49.302Z,97090.50
2022-11-18T21:49:51.075Z,97091.63
2022-11-18T21:54:52.891Z,97104.34
2022-11-18T21:59:55.382Z,97111.31
2022-11-18T22:04:58.162Z,97109.88
2022-11-18T22:10:00.179Z,97093.00
2022-11-18T22:15:01.983Z,97089.75
2022-11-18T22:20:04.127Z,97094.72
2022-11-18T22:25:06.686Z,97095.63
2022-11-18T22:30:08.907Z,97098.78
2022-11-18T22:35:10.768Z,97098.31
2022-11-18T22:40:13.003Z,97100.25
2022-11-18T22:45:15.809Z,97110.88
2022-11-18T22:50:17.920Z,97109.50
2022-11-18T22:55:20.256Z,97126.41
2022-11-18T23:00:22.045Z,97120.41
2022-11-18T23:05:23.885Z,97127.38
2022-11-18T23:10:25.649Z,97135.44
2022-11-18T23:15:27.453Z,97136.47
2022-11-18T23:20:29.229Z,97137.41
2022-11-18T23:25:31.900Z,97145.84
2022-11-18T23:30:33.887Z,97143.50
2022-11-18T23:35:35.768Z,97162.94
2022-11-18T23:40:37.564Z,97156.66
2022-11-18T23:45:39.378Z,97175.09
2022-11-18T23:50:41.312Z,97179.38
2022-11-18T23:55:43.135Z,97180.97
